sensor_id;sensor_type;location;lat;lon;timestamp;P1;durP1;ratioP1;P2;durP2;ratioP2
27740;SDS011;15134;48.768;9.184;2023-10-13T00:02:02;1075.28;;;986.17;;
27740;SDS011;15134;48.768;9.184;2023-10-13T00:04:30;1074.72;;;986.05;;
27740;SDS011;15134;48.768;9.184;2023-10-13T00:07:00;1072.80;;;983.42;;
27740;SDS011;15134;48.768;9.184;2023-10-13T00:09:27;1072.05;;;982.95;;
27740;SDS011;15134;48.768;9.184;2023-10-13T00:12:07;1075.60;;;986.55;;
27740;SDS011;15134;48.768;9.184;2023-10-13T00:14:39;1072.72;;;984.03;;
27740;SDS011;15134;48.768;9.184;2023-10-13T00:17:10;1071.70;;;983.92;;
27740;SDS011;15134;48.768;9.184;2023-10-13T00:19:45;1079.47;;;990.97;;
27740;SDS011;15134;48.768;9.184;2023-10-13T00:22:15;1074.93;;;986.63;;
27740;SDS011;15134;48.768;9.184;2023-10-13T00:24:42;1076.28;;;987.78;;
27740;SDS011;15134;48.768;9.184;2023-10-13T00:27:11;1064.15;;;976.33;;
27740;SDS011;15134;48.768;9.184;2023-10-13T00:29:58;1073.32;;;985.00;;
27740;SDS011;15134;48.768;9.184;2023-10-13T00:32:47;1072.55;;;984.35;;
27740;SDS011;15134;48.768;9.184;2023-10-13T00:35:20;1073.07;;;984.33;;
27740;SDS011;15134;48.768;9.184;2023-10-13T00:37:53;1069.53;;;981.25;;
27740;SDS011;15134;48.768;9.184;2023-10-13T00:40:20;1066.43;;;977.53;;
27740;SDS011;15134;48.768;9.184;2023-10-13T00:43:07;1069.10;;;980.60;;
27740;SDS011;15134;48.768;9.184;2023-10-13T00:48:26;1065.97;;;977.38;;
27740;SDS011;15134;48.768;9.184;2023-10-13T00:50:58;1068.95;;;980.47;;
27740;SDS011;15134;48.768;9.184;2023-10-13T00:53:28;1072.50;;;983.45;;
27740;SDS011;15134;48.768;9.184;2023-10-13T00:55:59;1070.47;;;981.45;;
27740;SDS011;15134;48.768;9.184;2023-10-13T00:58:54;1066.47;;;977.67;;
27740;SDS011;15134;48.768;9.184;2023-10-13T01:01:23;1070.25;;;980.88;;
27740;SDS011;15134;48.768;9.184;2023-10-13T01:03:59;1069.83;;;980.83;;
27740;SDS011;15134;48.768;9.184;2023-10-13T01:06:29;1066.32;;;977.00;;
27740;SDS011;15134;48.768;9.184;2023-10-13T01:08:59;1069.20;;;980.10;;
27740;SDS011;15134;48.768;9.184;2023-10-13T01:11:37;1064.15;;;975.70;;
27740;SDS011;15134;48.768;9.184;2023-10-13T01:14:03;1066.35;;;977.75;;
27740;SDS011;15134;48.768;9.184;2023-10-13T01:16:30;1066.78;;;978.33;;
27740;SDS011;15134;48.768;9.184;2023-10-13T01:18:56;1066.15;;;977.08;;
27740;SDS011;15134;48.768;9.184;2023-10-13T01:21:25;1060.47;;;972.17;;
27740;SDS011;15134;48.768;9.184;2023-10-13T01:23:55;1062.22;;;974.05;;
27740;SDS011;15134;48.768;9.184;2023-10-13T01:26:20;1061.38;;;973.78;;
27740;SDS011;15134;48.768;9.184;2023-10-13T01:28:49;1061.53;;;973.53;;
27740;SDS011;15134;48.768;9.184;2023-10-13T01:31:16;1057.45;;;968.28;;
27740;SDS011;15134;48.768;9.184;2023-10-13T01:34:02;1060.80;;;971.57;;
27740;SDS011;15134;48.768;9.184;2023-10-13T01:36:28;1055.72;;;967.15;;
27740;SDS011;15134;48.768;9.184;2023-10-13T01:39:00;1053.70;;;965.03;;
27740;SDS011;15134;48.768;9.184;2023-10-13T01:41:26;1055.30;;;966.58;;
27740;SDS011;15134;48.768;9.184;2023-10-13T01:43:52;1048.97;;;959.70;;
27740;SDS011;15134;48.768;9.184;2023-10-13T01:46:22;1052.93;;;964.35;;
27740;SDS011;15134;48.768;9.184;2023-10-13T01:48:48;1051.35;;;962.88;;
27740;SDS011;15134;48.768;9.184;2023-10-13T01:51:14;1047.37;;;959.30;;
27740;SDS011;15134;48.768;9.184;2023-10-13T01:53:40;1049.13;;;960.40;;
27740;SDS011;15134;48.768;9.184;2023-10-13T01:56:09;1053.60;;;964.83;;
27740;SDS011;15134;48.768;9.184;2023-10-13T01:58:40;1056.07;;;966.87;;
27740;SDS011;15134;48.768;9.184;2023-10-13T02:01:07;1051.07;;;962.40;;
27740;SDS011;15134;48.768;9.184;2023-10-13T02:03:34;1053.67;;;964.80;;
27740;SDS011;15134;48.768;9.184;2023-10-13T02:06:11;1048.68;;;960.40;;
27740;SDS011;15134;48.768;9.184;2023-10-13T02:08:45;1044.88;;;957.28;;
27740;SDS011;15134;48.768;9.184;2023-10-13T02:11:12;1047.10;;;958.63;;
27740;SDS011;15134;48.768;9.184;2023-10-13T02:13:40;1046.97;;;958.58;;
27740;SDS011;15134;48.768;9.184;2023-10-13T02:16:13;1053.15;;;964.90;;
27740;SDS011;15134;48.768;9.184;2023-10-13T02:18:43;1050.20;;;962.20;;
27740;SDS011;15134;48.768;9.184;2023-10-13T02:21:09;1046.40;;;957.70;;
27740;SDS011;15134;48.768;9.184;2023-10-13T02:23:39;1048.80;;;959.80;;
27740;SDS011;15134;48.768;9.184;2023-10-13T02:26:11;1044.13;;;955.13;;
27740;SDS011;15134;48.768;9.184;2023-10-13T02:28:40;1049.87;;;960.77;;
27740;SDS011;15134;48.768;9.184;2023-10-13T02:31:06;1049.43;;;960.30;;
27740;SDS011;15134;48.768;9.184;2023-10-13T02:33:32;1049.38;;;960.90;;
27740;SDS011;15134;48.768;9.184;2023-10-13T02:35:59;1042.18;;;953.70;;
27740;SDS011;15134;48.768;9.184;2023-10-13T02:38:29;1046.97;;;957.97;;
27740;SDS011;15134;48.768;9.184;2023-10-13T02:41:04;1040.03;;;951.28;;
27740;SDS011;15134;48.768;9.184;2023-10-13T02:43:36;1044.67;;;955.47;;
27740;SDS011;15134;48.768;9.184;2023-10-13T02:46:03;1036.63;;;947.57;;
27740;SDS011;15134;48.768;9.184;2023-10-13T02:48:29;1036.35;;;946.83;;
27740;SDS011;15134;48.768;9.184;2023-10-13T02:51:04;1040.10;;;950.83;;
27740;SDS011;15134;48.768;9.184;2023-10-13T02:53:40;1041.00;;;951.87;;
27740;SDS011;15134;48.768;9.184;2023-10-13T02:56:07;1037.47;;;948.65;;
27740;SDS011;15134;48.768;9.184;2023-10-13T02:58:33;1031.88;;;942.75;;
27740;SDS011;15134;48.768;9.184;2023-10-13T03:01:08;1036.32;;;946.92;;
27740;SDS011;15134;48.768;9.184;2023-10-13T03:03:45;1034.00;;;944.78;;
27740;SDS011;15134;48.768;9.184;2023-10-13T03:06:17;1031.07;;;942.00;;
27740;SDS011;15134;48.768;9.184;2023-10-13T03:09:04;1034.47;;;943.95;;
27740;SDS011;15134;48.768;9.184;2023-10-13T03:11:45;1037.70;;;948.00;;
27740;SDS011;15134;48.768;9.184;2023-10-13T03:14:15;1038.03;;;948.92;;
27740;SDS011;15134;48.768;9.184;2023-10-13T03:16:51;1030.38;;;941.05;;
27740;SDS011;15134;48.768;9.184;2023-10-13T03:19:17;1022.92;;;933.60;;
27740;SDS011;15134;48.768;9.184;2023-10-13T03:21:46;1021.20;;;931.27;;
27740;SDS011;15134;48.768;9.184;2023-10-13T03:24:20;1028.60;;;939.28;;
27740;SDS011;15134;48.768;9.184;2023-10-13T03:27:01;1027.78;;;939.50;;
27740;SDS011;15134;48.768;9.184;2023-10-13T03:29:37;1024.03;;;935.15;;
27740;SDS011;15134;48.768;9.184;2023-10-13T03:32:16;1023.95;;;934.90;;
27740;SDS011;15134;48.768;9.184;2023-10-13T03:34:45;1021.58;;;933.10;;
27740;SDS011;15134;48.768;9.184;2023-10-13T03:37:27;1024.03;;;935.15;;
27740;SDS011;15134;48.768;9.184;2023-10-13T03:40:13;1027.60;;;937.80;;
27740;SDS011;15134;48.768;9.184;2023-10-13T03:42:45;1019.92;;;931.53;;
27740;SDS011;15134;48.768;9.184;2023-10-13T03:45:32;1028.10;;;939.50;;
27740;SDS011;15134;48.768;9.184;2023-10-13T03:48:06;1021.58;;;932.17;;
27740;SDS011;15134;48.768;9.184;2023-10-13T03:50:39;1022.10;;;932.50;;
27740;SDS011;15134;48.768;9.184;2023-10-13T03:53:13;1021.57;;;932.47;;
27740;SDS011;15134;48.768;9.184;2023-10-13T03:55:40;1025.55;;;935.83;;
27740;SDS011;15134;48.768;9.184;2023-10-13T03:58:06;1021.50;;;931.83;;
27740;SDS011;15134;48.768;9.184;2023-10-13T04:00:32;1024.80;;;934.13;;
27740;SDS011;15134;48.768;9.184;2023-10-13T04:02:58;1017.70;;;928.35;;
27740;SDS011;15134;48.768;9.184;2023-10-13T04:05:41;1027.78;;;937.88;;
27740;SDS011;15134;48.768;9.184;2023-10-13T04:08:30;1024.45;;;935.17;;
27740;SDS011;15134;48.768;9.184;2023-10-13T04:11:08;1024.88;;;935.55;;
27740;SDS011;15134;48.768;9.184;2023-10-13T04:13:52;1024.65;;;936.10;;
27740;SDS011;15134;48.768;9.184;2023-10-13T04:16:37;1019.03;;;930.20;;
27740;SDS011;15134;48.768;9.184;2023-10-13T04:19:17;1015.87;;;927.20;;
27740;SDS011;15134;48.768;9.184;2023-10-13T04:21:51;1013.70;;;924.92;;
27740;SDS011;15134;48.768;9.184;2023-10-13T04:24:23;1013.42;;;923.58;;
27740;SDS011;15134;48.768;9.184;2023-10-13T04:27:03;1011.40;;;922.85;;
27740;SDS011;15134;48.768;9.184;2023-10-13T04:29:40;1012.00;;;923.38;;
27740;SDS011;15134;48.768;9.184;2023-10-13T04:32:25;1018.05;;;926.78;;
27740;SDS011;15134;48.768;9.184;2023-10-13T04:34:57;1021.35;;;930.55;;
27740;SDS011;15134;48.768;9.184;2023-10-13T04:37:43;1020.65;;;928.92;;
27740;SDS011;15134;48.768;9.184;2023-10-13T04:40:17;1020.00;;;929.25;;
27740;SDS011;15134;48.768;9.184;2023-10-13T04:43:04;1021.22;;;931.85;;
27740;SDS011;15134;48.768;9.184;2023-10-13T04:45:42;1025.30;;;935.72;;
27740;SDS011;15134;48.768;9.184;2023-10-13T04:48:19;1020.13;;;931.15;;
27740;SDS011;15134;48.768;9.184;2023-10-13T04:50:45;1021.43;;;932.47;;
27740;SDS011;15134;48.768;9.184;2023-10-13T04:53:16;1020.60;;;932.17;;
27740;SDS011;15134;48.768;9.184;2023-10-13T04:55:55;1022.23;;;933.63;;
27740;SDS011;15134;48.768;9.184;2023-10-13T04:58:25;1018.03;;;929.93;;
27740;SDS011;15134;48.768;9.184;2023-10-13T05:01:03;1021.97;;;933.45;;
27740;SDS011;15134;48.768;9.184;2023-10-13T05:03:54;1022.65;;;933.65;;
27740;SDS011;15134;48.768;9.184;2023-10-13T05:06:39;1025.70;;;936.78;;
27740;SDS011;15134;48.768;9.184;2023-10-13T05:09:11;1021.40;;;932.38;;
27740;SDS011;15134;48.768;9.184;2023-10-13T05:11:56;1023.40;;;934.35;;
27740;SDS011;15134;48.768;9.184;2023-10-13T05:14:41;1020.50;;;931.70;;
27740;SDS011;15134;48.768;9.184;2023-10-13T05:17:25;1018.05;;;929.47;;
27740;SDS011;15134;48.768;9.184;2023-10-13T05:20:10;1018.67;;;930.15;;
27740;SDS011;15134;48.768;9.184;2023-10-13T05:22:54;1018.38;;;929.30;;
27740;SDS011;15134;48.768;9.184;2023-10-13T05:25:52;1018.10;;;929.08;;
27740;SDS011;15134;48.768;9.184;2023-10-13T05:28:56;1021.55;;;931.97;;
27740;SDS011;15134;48.768;9.184;2023-10-13T05:31:40;1021.03;;;931.53;;
27740;SDS011;15134;48.768;9.184;2023-10-13T05:34:33;1019.33;;;929.33;;
27740;SDS011;15134;48.768;9.184;2023-10-13T05:37:17;1020.37;;;930.83;;
27740;SDS011;15134;48.768;9.184;2023-10-13T05:40:01;1018.53;;;929.17;;
27740;SDS011;15134;48.768;9.184;2023-10-13T05:42:45;1018.05;;;928.60;;
27740;SDS011;15134;48.768;9.184;2023-10-13T05:45:30;1014.83;;;925.45;;
27740;SDS011;15134;48.768;9.184;2023-10-13T05:48:19;1015.08;;;925.97;;
27740;SDS011;15134;48.768;9.184;2023-10-13T05:51:00;1014.53;;;925.22;;
27740;SDS011;15134;48.768;9.184;2023-10-13T05:53:44;1017.90;;;928.90;;
27740;SDS011;15134;48.768;9.184;2023-10-13T05:56:28;1014.10;;;925.10;;
27740;SDS011;15134;48.768;9.184;2023-10-13T05:59:13;1012.20;;;923.00;;
27740;SDS011;15134;48.768;9.184;2023-10-13T06:01:57;1011.05;;;922.45;;
27740;SDS011;15134;48.768;9.184;2023-10-13T06:04:52;1019.08;;;929.78;;
27740;SDS011;15134;48.768;9.184;2023-10-13T06:07:36;1018.03;;;929.58;;
27740;SDS011;15134;48.768;9.184;2023-10-13T06:10:21;1018.10;;;928.78;;
27740;SDS011;15134;48.768;9.184;2023-10-13T06:13:05;1016.42;;;927.35;;
27740;SDS011;15134;48.768;9.184;2023-10-13T06:15:50;1023.37;;;934.60;;
27740;SDS011;15134;48.768;9.184;2023-10-13T06:18:34;1023.25;;;933.90;;
27740;SDS011;15134;48.768;9.184;2023-10-13T06:21:19;1031.00;;;942.13;;
27740;SDS011;15134;48.768;9.184;2023-10-13T06:24:04;1033.25;;;944.33;;
27740;SDS011;15134;48.768;9.184;2023-10-13T06:26:49;1038.47;;;949.17;;
27740;SDS011;15134;48.768;9.184;2023-10-13T06:29:34;1041.93;;;952.53;;
27740;SDS011;15134;48.768;9.184;2023-10-13T06:31:59;1044.90;;;955.53;;
27740;SDS011;15134;48.768;9.184;2023-10-13T06:34:27;1044.68;;;955.38;;
27740;SDS011;15134;48.768;9.184;2023-10-13T06:37:13;1044.93;;;955.10;;
27740;SDS011;15134;48.768;9.184;2023-10-13T06:39:54;1049.88;;;960.75;;
27740;SDS011;15134;48.768;9.184;2023-10-13T06:42:22;1049.18;;;960.10;;
27740;SDS011;15134;48.768;9.184;2023-10-13T06:44:55;1051.68;;;962.22;;
27740;SDS011;15134;48.768;9.184;2023-10-13T06:47:21;1052.07;;;962.90;;
27740;SDS011;15134;48.768;9.184;2023-10-13T06:49:49;1050.60;;;961.22;;
27740;SDS011;15134;48.768;9.184;2023-10-13T06:52:23;1048.22;;;959.22;;
27740;SDS011;15134;48.768;9.184;2023-10-13T06:54:52;1050.63;;;961.75;;
27740;SDS011;15134;48.768;9.184;2023-10-13T06:57:19;1060.13;;;971.08;;
27740;SDS011;15134;48.768;9.184;2023-10-13T06:59:47;1064.20;;;974.65;;
27740;SDS011;15134;48.768;9.184;2023-10-13T07:02:14;1060.05;;;971.00;;
27740;SDS011;15134;48.768;9.184;2023-10-13T07:04:49;1064.07;;;974.80;;
27740;SDS011;15134;48.768;9.184;2023-10-13T07:07:28;1060.63;;;971.63;;
27740;SDS011;15134;48.768;9.184;2023-10-13T07:09:55;1065.47;;;976.15;;
27740;SDS011;15134;48.768;9.184;2023-10-13T07:12:21;1069.17;;;980.07;;
27740;SDS011;15134;48.768;9.184;2023-10-13T07:14:53;1073.05;;;983.47;;
27740;SDS011;15134;48.768;9.184;2023-10-13T07:17:28;1075.33;;;985.47;;
27740;SDS011;15134;48.768;9.184;2023-10-13T07:19:58;1079.57;;;990.25;;
27740;SDS011;15134;48.768;9.184;2023-10-13T07:22:43;1081.63;;;991.78;;
27740;SDS011;15134;48.768;9.184;2023-10-13T07:25:27;1074.40;;;985.20;;
27740;SDS011;15134;48.768;9.184;2023-10-13T07:27:58;1071.43;;;982.42;;
27740;SDS011;15134;48.768;9.184;2023-10-13T07:30:25;1072.57;;;983.28;;
27740;SDS011;15134;48.768;9.184;2023-10-13T07:32:52;1073.45;;;983.47;;
27740;SDS011;15134;48.768;9.184;2023-10-13T07:35:18;1069.25;;;979.47;;
27740;SDS011;15134;48.768;9.184;2023-10-13T07:37:46;1072.15;;;982.72;;
27740;SDS011;15134;48.768;9.184;2023-10-13T07:40:17;1071.93;;;983.07;;
27740;SDS011;15134;48.768;9.184;2023-10-13T07:42:49;1074.85;;;985.45;;
27740;SDS011;15134;48.768;9.184;2023-10-13T07:45:16;1075.85;;;987.13;;
27740;SDS011;15134;48.768;9.184;2023-10-13T07:47:49;1072.40;;;982.97;;
27740;SDS011;15134;48.768;9.184;2023-10-13T07:50:16;1071.68;;;983.05;;
27740;SDS011;15134;48.768;9.184;2023-10-13T07:52:50;1068.87;;;979.43;;
27740;SDS011;15134;48.768;9.184;2023-10-13T07:55:24;1065.97;;;976.80;;
27740;SDS011;15134;48.768;9.184;2023-10-13T07:57:50;1060.50;;;971.78;;
27740;SDS011;15134;48.768;9.184;2023-10-13T08:00:24;1062.03;;;973.63;;
27740;SDS011;15134;48.768;9.184;2023-10-13T08:03:08;1067.20;;;978.10;;
27740;SDS011;15134;48.768;9.184;2023-10-13T08:05:43;1071.07;;;981.85;;
27740;SDS011;15134;48.768;9.184;2023-10-13T08:08:28;1066.10;;;977.83;;
27740;SDS011;15134;48.768;9.184;2023-10-13T08:11:03;1075.47;;;986.63;;
27740;SDS011;15134;48.768;9.184;2023-10-13T08:13:39;1079.18;;;991.05;;
27740;SDS011;15134;48.768;9.184;2023-10-13T08:16:22;1081.55;;;994.03;;
27740;SDS011;15134;48.768;9.184;2023-10-13T08:18:48;1068.35;;;981.88;;
27740;SDS011;15134;48.768;9.184;2023-10-13T08:21:16;1071.95;;;984.92;;
27740;SDS011;15134;48.768;9.184;2023-10-13T08:23:43;1059.55;;;973.25;;
27740;SDS011;15134;48.768;9.184;2023-10-13T08:26:24;1060.00;;;973.38;;
27740;SDS011;15134;48.768;9.184;2023-10-13T08:29:09;1044.30;;;958.67;;
27740;SDS011;15134;48.768;9.184;2023-10-13T08:31:58;1033.88;;;948.65;;
27740;SDS011;15134;48.768;9.184;2023-10-13T08:34:46;1036.90;;;951.25;;
27740;SDS011;15134;48.768;9.184;2023-10-13T08:37:13;1045.53;;;959.13;;
27740;SDS011;15134;48.768;9.184;2023-10-13T08:39:51;1029.40;;;944.30;;
27740;SDS011;15134;48.768;9.184;2023-10-13T08:42:31;998.83;;;915.25;;
27740;SDS011;15134;48.768;9.184;2023-10-13T08:45:11;1031.07;;;945.15;;
27740;SDS011;15134;48.768;9.184;2023-10-13T08:53:21;1034.70;;;948.38;;
27740;SDS011;15134;48.768;9.184;2023-10-13T08:56:00;1013.00;;;928.28;;
27740;SDS011;15134;48.768;9.184;2023-10-13T08:58:40;1030.97;;;945.17;;
27740;SDS011;15134;48.768;9.184;2023-10-13T09:01:24;1014.05;;;929.58;;
27740;SDS011;15134;48.768;9.184;2023-10-13T09:04:03;1024.20;;;939.33;;
27740;SDS011;15134;48.768;9.184;2023-10-13T09:06:52;1024.60;;;939.78;;
27740;SDS011;15134;48.768;9.184;2023-10-13T09:09:28;1043.07;;;956.92;;
27740;SDS011;15134;48.768;9.184;2023-10-13T09:12:01;1029.78;;;944.65;;
27740;SDS011;15134;48.768;9.184;2023-10-13T09:14:38;1013.40;;;929.50;;
27740;SDS011;15134;48.768;9.184;2023-10-13T09:17:22;1041.05;;;955.22;;
27740;SDS011;15134;48.768;9.184;2023-10-13T09:20:08;1028.05;;;943.05;;
27740;SDS011;15134;48.768;9.184;2023-10-13T09:22:47;1010.97;;;927.30;;
27740;SDS011;15134;48.768;9.184;2023-10-13T09:25:36;1023.67;;;939.15;;
27740;SDS011;15134;48.768;9.184;2023-10-13T09:28:04;1013.00;;;929.20;;
27740;SDS011;15134;48.768;9.184;2023-10-13T09:30:58;998.78;;;915.78;;
27740;SDS011;15134;48.768;9.184;2023-10-13T09:33:28;1027.07;;;942.15;;
27740;SDS011;15134;48.768;9.184;2023-10-13T09:36:04;1013.67;;;929.75;;
27740;SDS011;15134;48.768;9.184;2023-10-13T09:38:38;993.50;;;911.10;;
27740;SDS011;15134;48.768;9.184;2023-10-13T09:41:13;1006.72;;;923.35;;
27740;SDS011;15134;48.768;9.184;2023-10-13T09:43:51;1008.17;;;924.87;;
27740;SDS011;15134;48.768;9.184;2023-10-13T09:46:20;983.93;;;902.10;;
27740;SDS011;15134;48.768;9.184;2023-10-13T09:48:53;981.50;;;899.67;;
27740;SDS011;15134;48.768;9.184;2023-10-13T09:51:39;985.23;;;903.63;;
27740;SDS011;15134;48.768;9.184;2023-10-13T09:54:26;978.03;;;896.60;;
27740;SDS011;15134;48.768;9.184;2023-10-13T09:57:08;979.45;;;898.13;;
27740;SDS011;15134;48.768;9.184;2023-10-13T10:00:00;991.00;;;908.97;;
27740;SDS011;15134;48.768;9.184;2023-10-13T10:02:36;1003.72;;;920.75;;
27740;SDS011;15134;48.768;9.184;2023-10-13T10:05:09;1011.10;;;927.65;;
27740;SDS011;15134;48.768;9.184;2023-10-13T10:07:53;959.57;;;879.63;;
27740;SDS011;15134;48.768;9.184;2023-10-13T10:10:21;963.85;;;883.88;;
27740;SDS011;15134;48.768;9.184;2023-10-13T10:12:52;979.20;;;898.13;;
27740;SDS011;15134;48.768;9.184;2023-10-13T10:15:34;953.80;;;874.43;;
27740;SDS011;15134;48.768;9.184;2023-10-13T10:18:18;967.45;;;887.20;;
27740;SDS011;15134;48.768;9.184;2023-10-13T10:20:47;942.92;;;864.47;;
27740;SDS011;15134;48.768;9.184;2023-10-13T10:23:28;946.50;;;867.85;;
27740;SDS011;15134;48.768;9.184;2023-10-13T10:26:22;948.40;;;869.58;;
27740;SDS011;15134;48.768;9.184;2023-10-13T10:28:47;955.15;;;875.78;;
27740;SDS011;15134;48.768;9.184;2023-10-13T10:31:13;963.92;;;883.88;;
27740;SDS011;15134;48.768;9.184;2023-10-13T10:33:44;940.35;;;862.03;;
27740;SDS011;15134;48.768;9.184;2023-10-13T10:36:22;948.88;;;869.85;;
27740;SDS011;15134;48.768;9.184;2023-10-13T10:38:57;937.03;;;859.05;;
27740;SDS011;15134;48.768;9.184;2023-10-13T10:41:29;932.63;;;854.83;;
27740;SDS011;15134;48.768;9.184;2023-10-13T10:44:09;943.88;;;865.00;;
27740;SDS011;15134;48.768;9.184;2023-10-13T10:46:42;933.38;;;855.13;;
27740;SDS011;15134;48.768;9.184;2023-10-13T10:49:19;942.90;;;863.95;;
27740;SDS011;15134;48.768;9.184;2023-10-13T10:51:58;934.65;;;855.95;;
27740;SDS011;15134;48.768;9.184;2023-10-13T10:54:31;935.73;;;857.10;;
27740;SDS011;15134;48.768;9.184;2023-10-13T10:56:57;940.65;;;861.47;;
27740;SDS011;15134;48.768;9.184;2023-10-13T10:59:39;1082.22;;;990.58;;
27740;SDS011;15134;48.768;9.184;2023-10-13T11:02:05;957.97;;;878.25;;
27740;SDS011;15134;48.768;9.184;2023-10-13T11:04:34;987.92;;;905.88;;
27740;SDS011;15134;48.768;9.184;2023-10-13T11:07:05;978.80;;;897.13;;
27740;SDS011;15134;48.768;9.184;2023-10-13T11:09:33;954.55;;;874.65;;
27740;SDS011;15134;48.768;9.184;2023-10-13T11:14:36;964.30;;;883.38;;
27740;SDS011;15134;48.768;9.184;2023-10-13T11:17:04;957.50;;;877.43;;
27740;SDS011;15134;48.768;9.184;2023-10-13T11:19:38;978.03;;;896.35;;
27740;SDS011;15134;48.768;9.184;2023-10-13T11:22:10;955.33;;;875.45;;
27740;SDS011;15134;48.768;9.184;2023-10-13T11:24:43;966.97;;;885.95;;
27740;SDS011;15134;48.768;9.184;2023-10-13T11:27:15;958.97;;;878.37;;
27740;SDS011;15134;48.768;9.184;2023-10-13T11:30:02;1070.13;;;977.10;;
27740;SDS011;15134;48.768;9.184;2023-10-13T11:32:30;978.42;;;897.15;;
27740;SDS011;15134;48.768;9.184;2023-10-13T11:34:56;976.50;;;894.87;;
27740;SDS011;15134;48.768;9.184;2023-10-13T11:37:22;984.10;;;901.90;;
27740;SDS011;15134;48.768;9.184;2023-10-13T11:39:53;1001.10;;;917.90;;
27740;SDS011;15134;48.768;9.184;2023-10-13T11:42:20;992.17;;;909.53;;
27740;SDS011;15134;48.768;9.184;2023-10-13T11:44:45;993.17;;;910.40;;
27740;SDS011;15134;48.768;9.184;2023-10-13T11:47:23;970.35;;;889.40;;
27740;SDS011;15134;48.768;9.184;2023-10-13T11:50:12;996.83;;;913.67;;
27740;SDS011;15134;48.768;9.184;2023-10-13T11:52:38;1011.17;;;926.80;;
27740;SDS011;15134;48.768;9.184;2023-10-13T11:55:05;1000.90;;;917.38;;
27740;SDS011;15134;48.768;9.184;2023-10-13T11:57:31;981.30;;;899.45;;
27740;SDS011;15134;48.768;9.184;2023-10-13T11:59:58;1015.33;;;930.92;;
27740;SDS011;15134;48.768;9.184;2023-10-13T12:02:43;997.03;;;913.95;;
27740;SDS011;15134;48.768;9.184;2023-10-13T12:05:28;1003.95;;;920.55;;
27740;SDS011;15134;48.768;9.184;2023-10-13T12:08:13;983.22;;;901.22;;
27740;SDS011;15134;48.768;9.184;2023-10-13T12:10:47;966.33;;;885.70;;
27740;SDS011;15134;48.768;9.184;2023-10-13T12:13:25;980.75;;;898.85;;
27740;SDS011;15134;48.768;9.184;2023-10-13T12:15:50;1002.43;;;919.17;;
27740;SDS011;15134;48.768;9.184;2023-10-13T12:18:17;985.67;;;903.50;;
27740;SDS011;15134;48.768;9.184;2023-10-13T12:20:44;983.22;;;901.10;;
27740;SDS011;15134;48.768;9.184;2023-10-13T12:23:14;982.27;;;900.47;;
27740;SDS011;15134;48.768;9.184;2023-10-13T12:25:45;985.42;;;903.25;;
27740;SDS011;15134;48.768;9.184;2023-10-13T12:28:20;984.67;;;902.35;;
27740;SDS011;15134;48.768;9.184;2023-10-13T12:30:48;989.78;;;907.38;;
27740;SDS011;15134;48.768;9.184;2023-10-13T12:33:15;983.42;;;901.35;;
27740;SDS011;15134;48.768;9.184;2023-10-13T12:35:55;980.47;;;898.42;;
27740;SDS011;15134;48.768;9.184;2023-10-13T12:38:53;996.58;;;913.60;;
27740;SDS011;15134;48.768;9.184;2023-10-13T12:41:34;971.60;;;890.40;;
27740;SDS011;15134;48.768;9.184;2023-10-13T12:44:18;1001.28;;;918.00;;
27740;SDS011;15134;48.768;9.184;2023-10-13T12:47:02;986.25;;;903.85;;
27740;SDS011;15134;48.768;9.184;2023-10-13T12:49:47;984.83;;;902.65;;
27740;SDS011;15134;48.768;9.184;2023-10-13T12:52:13;986.70;;;904.33;;
27740;SDS011;15134;48.768;9.184;2023-10-13T12:54:42;988.50;;;906.13;;
27740;SDS011;15134;48.768;9.184;2023-10-13T12:57:15;978.80;;;897.00;;
27740;SDS011;15134;48.768;9.184;2023-10-13T12:59:41;986.55;;;904.28;;
27740;SDS011;15134;48.768;9.184;2023-10-13T13:02:08;979.47;;;897.38;;
27740;SDS011;15134;48.768;9.184;2023-10-13T13:04:40;985.40;;;902.95;;
27740;SDS011;15134;48.768;9.184;2023-10-13T13:07:09;993.65;;;910.67;;
27740;SDS011;15134;48.768;9.184;2023-10-13T13:09:41;980.70;;;898.78;;
27740;SDS011;15134;48.768;9.184;2023-10-13T13:12:07;977.40;;;895.67;;
27740;SDS011;15134;48.768;9.184;2023-10-13T13:14:33;984.25;;;902.08;;
27740;SDS011;15134;48.768;9.184;2023-10-13T13:17:02;981.22;;;899.17;;
27740;SDS011;15134;48.768;9.184;2023-10-13T13:19:34;985.03;;;902.83;;
27740;SDS011;15134;48.768;9.184;2023-10-13T13:22:07;985.83;;;903.47;;
27740;SDS011;15134;48.768;9.184;2023-10-13T13:24:42;986.67;;;904.47;;
27740;SDS011;15134;48.768;9.184;2023-10-13T13:27:16;999.97;;;916.45;;
27740;SDS011;15134;48.768;9.184;2023-10-13T13:29:44;992.28;;;909.35;;
27740;SDS011;15134;48.768;9.184;2023-10-13T13:32:10;1008.15;;;924.20;;
27740;SDS011;15134;48.768;9.184;2023-10-13T13:34:49;1010.00;;;925.67;;
27740;SDS011;15134;48.768;9.184;2023-10-13T13:37:33;1011.17;;;926.70;;
27740;SDS011;15134;48.768;9.184;2023-10-13T13:40:00;1010.77;;;926.53;;
27740;SDS011;15134;48.768;9.184;2023-10-13T13:42:48;1026.30;;;941.00;;
27740;SDS011;15134;48.768;9.184;2023-10-13T13:45:14;1004.90;;;921.25;;
27740;SDS011;15134;48.768;9.184;2023-10-13T13:47:48;1012.20;;;928.05;;
27740;SDS011;15134;48.768;9.184;2023-10-13T13:50:18;1058.03;;;963.45;;
27740;SDS011;15134;48.768;9.184;2023-10-13T13:52:53;1018.63;;;934.40;;
27740;SDS011;15134;48.768;9.184;2023-10-13T13:55:23;1015.47;;;931.20;;
27740;SDS011;15134;48.768;9.184;2023-10-13T13:57:50;1019.28;;;934.63;;
27740;SDS011;15134;48.768;9.184;2023-10-13T14:00:18;1012.47;;;928.53;;
27740;SDS011;15134;48.768;9.184;2023-10-13T14:03:06;1013.53;;;929.38;;
27740;SDS011;15134;48.768;9.184;2023-10-13T14:05:41;1021.30;;;936.70;;
27740;SDS011;15134;48.768;9.184;2023-10-13T14:08:07;1001.15;;;917.92;;
27740;SDS011;15134;48.768;9.184;2023-10-13T14:10:37;1003.67;;;920.08;;
27740;SDS011;15134;48.768;9.184;2023-10-13T14:13:23;1010.13;;;926.08;;
27740;SDS011;15134;48.768;9.184;2023-10-13T14:16:09;1008.00;;;924.22;;
27740;SDS011;15134;48.768;9.184;2023-10-13T14:18:44;997.00;;;913.92;;
27740;SDS011;15134;48.768;9.184;2023-10-13T14:21:11;1000.80;;;917.53;;
27740;SDS011;15134;48.768;9.184;2023-10-13T14:23:45;1006.33;;;922.80;;
27740;SDS011;15134;48.768;9.184;2023-10-13T14:26:15;984.55;;;902.67;;
27740;SDS011;15134;48.768;9.184;2023-10-13T14:28:46;999.85;;;916.67;;
27740;SDS011;15134;48.768;9.184;2023-10-13T14:31:33;1005.00;;;921.50;;
27740;SDS011;15134;48.768;9.184;2023-10-13T14:34:03;1003.40;;;920.22;;
27740;SDS011;15134;48.768;9.184;2023-10-13T14:36:28;988.92;;;906.58;;
27740;SDS011;15134;48.768;9.184;2023-10-13T14:38:55;1004.13;;;920.78;;
27740;SDS011;15134;48.768;9.184;2023-10-13T14:41:21;1007.05;;;923.40;;
27740;SDS011;15134;48.768;9.184;2023-10-13T14:43:47;1056.00;;;961.55;;